createdAt,value
2024-04-14T00:00:55.563Z,6.80
2024-04-14T00:03:23.380Z,6.65
2024-04-14T00:05:51.077Z,6.82
2024-04-14T00:08:20.483Z,6.70
2024-04-14T00:10:47.891Z,6.70
2024-04-14T00:15:43.231Z,5.88
2024-04-14T00:18:11.506Z,7.00
2024-04-14T00:20:39.468Z,8.77
2024-04-14T00:25:35.675Z,5.68
2024-04-14T00:28:03.089Z,7.45
2024-04-14T00:32:58.815Z,5.55
2024-04-14T00:35:26.615Z,8.18
2024-04-14T00:37:54.057Z,8.57
2024-04-14T00:40:21.814Z,6.60
2024-04-14T00:42:56.127Z,8.32
2024-04-14T00:45:24.566Z,6.93
2024-04-14T00:47:51.285Z,5.82
2024-04-14T00:50:19.141Z,8.23
2024-04-14T00:52:48.233Z,8.27
2024-04-14T00:55:15.763Z,5.15
2024-04-14T01:00:10.055Z,4.90
2024-04-14T01:02:37.683Z,4.88
2024-04-14T01:05:05.757Z,4.53
2024-04-14T01:07:33.885Z,5.85
2024-04-14T01:10:01.685Z,6.20
2024-04-14T01:12:28.062Z,5.72
2024-04-14T01:14:55.547Z,7.30
2024-04-14T01:19:49.812Z,6.50
2024-04-14T01:22:17.147Z,5.97
2024-04-14T01:24:44.869Z,5.55
2024-04-14T01:27:14.699Z,6.10
2024-04-14T01:29:43.981Z,5.25
2024-04-14T01:32:11.869Z,7.63
2024-04-14T01:34:39.757Z,4.50
2024-04-14T01:37:07.192Z,5.15
2024-04-14T01:42:02.475Z,6.93
2024-04-14T01:44:28.858Z,8.98
2024-04-14T01:46:56.376Z,6.90
2024-04-14T01:51:50.703Z,7.90
2024-04-14T01:54:17.041Z,6.60
2024-04-14T01:56:43.493Z,7.15
2024-04-14T01:59:09.883Z,8.10
2024-04-14T02:01:37.424Z,8.52
2024-04-14T02:04:05.602Z,7.18
2024-04-14T02:06:33.292Z,8.95
2024-04-14T02:09:01.089Z,9.35
2024-04-14T02:11:29.310Z,9.48
2024-04-14T02:13:55.921Z,6.82
2024-04-14T02:16:23.646Z,8.20
2024-04-14T02:18:51.427Z,8.60
2024-04-14T02:21:19.035Z,10.88
2024-04-14T02:23:46.518Z,8.63
2024-04-14T02:28:41.163Z,8.25
2024-04-14T02:31:09.654Z,9.90
2024-04-14T02:33:37.192Z,8.30
2024-04-14T02:38:32.581Z,9.32
2024-04-14T02:41:04.398Z,8.52
2024-04-14T02:43:31.386Z,9.48
2024-04-14T02:45:59.086Z,7.65
2024-04-14T02:48:28.530Z,9.85
2024-04-14T02:50:56.092Z,8.40
2024-04-14T02:53:24.111Z,8.60
2024-04-14T02:55:52.023Z,9.05
2024-04-14T02:58:19.459Z,10.57
2024-04-14T03:00:47.141Z,7.32
2024-04-14T03:03:14.277Z,9.10
2024-04-14T03:05:41.958Z,8.88
2024-04-14T03:08:08.460Z,10.77
2024-04-14T03:10:36.101Z,7.97
2024-04-14T03:13:04.299Z,8.13
2024-04-14T03:15:32.266Z,8.77
2024-04-14T03:17:59.988Z,8.55
2024-04-14T03:20:27.565Z,8.48
2024-04-14T03:25:21.511Z,8.98
2024-04-14T03:27:48.191Z,7.72
2024-04-14T03:30:15.711Z,9.70
2024-04-14T03:35:10.923Z,8.90
2024-04-14T03:37:40.932Z,10.07
2024-04-14T03:40:07.954Z,5.65
2024-04-14T03:42:35.538Z,6.63
2024-04-14T03:45:08.449Z,6.97
2024-04-14T03:47:36.625Z,7.18
2024-04-14T03:50:04.655Z,5.57
2024-04-14T03:52:32.454Z,6.45
2024-04-14T03:55:00.104Z,7.75
2024-04-14T03:57:27.957Z,5.93
2024-04-14T03:59:54.433Z,6.68
2024-04-14T04:02:22.106Z,5.47
2024-04-14T04:04:49.590Z,6.93
2024-04-14T04:09:45.189Z,5.45
2024-04-14T04:12:12.961Z,6.10
2024-04-14T04:14:39.330Z,6.50
2024-04-14T04:17:07.074Z,6.53
2024-04-14T04:19:34.625Z,6.20
2024-04-14T04:24:31.185Z,5.82
2024-04-14T04:26:58.108Z,6.65
2024-04-14T04:29:29.009Z,6.75
2024-04-14T04:31:57.148Z,8.45
2024-04-14T04:34:23.772Z,6.05
2024-04-14T04:36:51.602Z,6.65
2024-04-14T04:39:18.529Z,6.18
2024-04-14T04:41:46.210Z,7.47
2024-04-14T04:44:12.551Z,8.27
2024-04-14T04:46:40.301Z,7.15
2024-04-14T04:49:06.688Z,7.82
2024-04-14T04:51:34.105Z,5.90
2024-04-14T04:54:01.734Z,6.80
2024-04-14T04:56:28.099Z,7.57
2024-04-14T04:58:56.612Z,9.13
2024-04-14T05:01:24.435Z,7.47
2024-04-14T05:03:52.221Z,7.65
2024-04-14T05:06:20.269Z,9.27
2024-04-14T05:08:47.989Z,7.85
2024-04-14T05:11:15.870Z,6.43
2024-04-14T05:13:43.818Z,6.95
2024-04-14T05:16:11.348Z,8.40
2024-04-14T05:21:06.178Z,7.68
2024-04-14T05:23:33.524Z,9.18
2024-04-14T05:26:01.534Z,8.45
2024-04-14T05:28:29.013Z,9.23
2024-04-14T05:33:24.437Z,6.57
2024-04-14T05:38:20.117Z,5.53
2024-04-14T05:40:48.099Z,8.13
2024-04-14T05:43:15.902Z,5.47
2024-04-14T05:45:43.558Z,5.55
2024-04-14T05:48:11.318Z,7.30
2024-04-14T05:50:38.844Z,5.20
2024-04-14T05:53:06.738Z,6.80
2024-04-14T05:55:34.455Z,6.28
2024-04-14T05:58:03.887Z,6.25
2024-04-14T06:00:31.136Z,6.07
2024-04-14T06:03:00.858Z,6.28
2024-04-14T06:05:28.274Z,4.72
2024-04-14T06:07:55.705Z,5.97
2024-04-14T06:12:49.436Z,4.97
2024-04-14T06:15:16.049Z,5.63
2024-04-14T06:17:43.520Z,4.43
2024-04-14T06:22:37.704Z,4.68
2024-04-14T06:25:05.603Z,5.57
2024-04-14T06:27:33.294Z,4.65
2024-04-14T06:30:01.267Z,4.05
2024-04-14T06:32:29.182Z,4.07
2024-04-14T06:34:56.773Z,2.65
2024-04-14T06:37:24.228Z,4.20
2024-04-14T06:42:18.498Z,2.97
2024-04-14T06:44:46.415Z,4.85
2024-04-14T06:47:13.862Z,2.67
2024-04-14T06:52:08.013Z,3.38
2024-04-14T06:54:35.663Z,4.45
2024-04-14T06:57:03.474Z,3.40
2024-04-14T06:59:29.905Z,3.55
2024-04-14T07:01:57.867Z,4.30
2024-04-14T07:04:25.767Z,4.72
2024-04-14T07:06:52.311Z,4.25
2024-04-14T07:09:19.892Z,4.15
2024-04-14T07:11:47.481Z,3.17
2024-04-14T07:14:16.346Z,3.35
2024-04-14T07:16:43.130Z,4.82
2024-04-14T07:19:13.187Z,3.22
2024-04-14T07:21:43.727Z,6.82
2024-04-14T07:24:11.210Z,6.43
2024-04-14T07:26:38.913Z,3.20
2024-04-14T07:29:06.288Z,4.97
2024-04-14T07:34:02.000Z,3.85
2024-04-14T07:36:29.704Z,3.80
2024-04-14T07:38:57.483Z,2.95
2024-04-14T07:41:24.867Z,3.95
2024-04-14T07:46:23.474Z,4.75
2024-04-14T07:48:51.245Z,5.18
2024-04-14T07:51:18.947Z,3.20
2024-04-14T07:53:47.589Z,3.80
2024-04-14T07:56:15.517Z,4.88
2024-04-14T07:58:43.476Z,4.40
2024-04-14T08:01:11.100Z,4.68
2024-04-14T08:03:47.386Z,4.07
2024-04-14T08:06:21.348Z,2.78
2024-04-14T08:08:49.006Z,3.45
2024-04-14T08:11:16.633Z,4.43
2024-04-14T08:13:43.175Z,4.63
2024-04-14T08:16:11.047Z,2.75
2024-04-14T08:18:38.718Z,3.35
2024-04-14T08:21:06.283Z,2.80
2024-04-14T08:23:33.996Z,3.72
2024-04-14T08:26:04.891Z,4.28
2024-04-14T08:28:32.951Z,3.75
2024-04-14T08:31:00.989Z,4.70
2024-04-14T08:33:28.260Z,3.03
2024-04-14T08:35:55.783Z,3.28
2024-04-14T08:38:23.508Z,4.00
2024-04-14T08:40:54.712Z,3.88
2024-04-14T08:43:22.477Z,7.00
2024-04-14T08:45:51.620Z,2.97
2024-04-14T08:48:20.064Z,4.05
2024-04-14T08:50:50.100Z,3.67
2024-04-14T08:53:20.997Z,3.20
2024-04-14T08:55:48.563Z,2.33
2024-04-14T08:58:16.894Z,3.28
2024-04-14T09:00:47.962Z,3.38
2024-04-14T09:03:15.622Z,4.38
2024-04-14T09:05:44.173Z,4.38
2024-04-14T09:08:11.855Z,3.17
2024-04-14T09:10:39.498Z,3.80
2024-04-14T09:13:09.330Z,4.70
2024-04-14T09:15:41.788Z,3.40
2024-04-14T09:18:09.683Z,2.88
2024-04-14T09:20:37.692Z,2.72
2024-04-14T09:23:05.244Z,3.53
2024-04-14T09:25:33.726Z,2.25
2024-04-14T09:28:08.651Z,5.88
2024-04-14T09:30:36.837Z,2.65
2024-04-14T09:33:04.505Z,3.15
2024-04-14T09:35:34.397Z,3.75
2024-04-14T09:38:02.116Z,4.40
2024-04-14T09:40:30.868Z,3.58
2024-04-14T09:43:00.967Z,4.38
2024-04-14T09:45:31.780Z,4.47
2024-04-14T09:47:59.756Z,4.63
2024-04-14T09:50:27.356Z,3.80
2024-04-14T09:52:56.568Z,3.13
2024-04-14T09:55:24.532Z,3.83
2024-04-14T09:57:51.957Z,3.15
2024-04-14T10:00:19.865Z,2.65
2024-04-14T10:03:17.295Z,3.50
2024-04-14T10:05:45.517Z,5.50
2024-04-14T10:08:11.925Z,2.67
2024-04-14T10:10:39.389Z,2.95
2024-04-14T10:13:09.774Z,2.97
2024-04-14T10:15:39.469Z,3.25
2024-04-14T10:18:18.987Z,2.42
2024-04-14T10:20:49.042Z,2.92
2024-04-14T10:23:18.420Z,3.88
2024-04-14T10:25:45.620Z,4.40
2024-04-14T10:30:39.657Z,3.50
2024-04-14T10:33:11.067Z,4.90
2024-04-14T10:35:38.849Z,2.75
2024-04-14T10:38:06.466Z,2.80
2024-04-14T10:40:37.907Z,4.03
2024-04-14T10:43:05.885Z,3.65
2024-04-14T10:45:33.784Z,3.72
2024-04-14T10:48:00.223Z,3.40
2024-04-14T10:50:30.915Z,4.63
2024-04-14T10:52:59.026Z,4.70
2024-04-14T10:55:26.993Z,3.08
2024-04-14T10:57:54.670Z,4.07
2024-04-14T11:00:22.645Z,5.68
2024-04-14T11:02:50.904Z,2.97
2024-04-14T11:05:24.449Z,3.55
2024-04-14T11:10:21.472Z,2.85
2024-04-14T11:12:49.233Z,2.53
2024-04-14T11:15:16.842Z,4.32
2024-04-14T11:17:44.685Z,4.03
2024-04-14T11:20:16.274Z,3.47
2024-04-14T11:22:44.150Z,3.72
2024-04-14T11:25:12.023Z,3.25
2024-04-14T11:27:40.571Z,1.73
2024-04-14T11:30:08.287Z,2.35
2024-04-14T11:32:40.285Z,2.55
2024-04-14T11:35:07.475Z,4.40
2024-04-14T11:40:05.958Z,3.80
2024-04-14T11:42:34.845Z,5.72
2024-04-14T11:45:02.806Z,3.80
2024-04-14T11:47:30.969Z,3.40
2024-04-14T11:49:58.503Z,3.03
2024-04-14T11:52:26.020Z,2.30
2024-04-14T11:54:53.541Z,4.07
2024-04-14T11:57:22.658Z,3.83
2024-04-14T11:59:52.948Z,4.38
2024-04-14T12:02:22.058Z,2.88
2024-04-14T12:04:51.026Z,3.15
2024-04-14T12:07:18.912Z,2.35
2024-04-14T12:09:49.199Z,4.15
2024-04-14T12:12:17.003Z,5.15
2024-04-14T12:14:44.502Z,2.70
2024-04-14T12:17:14.372Z,3.00
2024-04-14T12:19:42.247Z,3.40
2024-04-14T12:22:10.159Z,3.50
2024-04-14T12:24:37.596Z,3.55
2024-04-14T12:27:05.576Z,3.20
2024-04-14T12:29:34.138Z,3.97
2024-04-14T12:32:00.682Z,4.20
2024-04-14T12:34:28.694Z,4.85
2024-04-14T12:36:57.012Z,3.28
2024-04-14T12:39:30.485Z,3.30
2024-04-14T12:42:00.203Z,3.63
2024-04-14T12:44:27.865Z,3.60
2024-04-14T12:46:55.863Z,4.35
2024-04-14T12:49:27.595Z,2.92
2024-04-14T12:51:58.837Z,3.25
2024-04-14T12:54:26.555Z,3.00
2024-04-14T12:56:54.029Z,4.10
2024-04-14T12:59:21.658Z,3.20
2024-04-14T13:01:49.768Z,2.95
2024-04-14T13:04:17.475Z,2.40
2024-04-14T13:06:44.254Z,3.10
2024-04-14T13:09:12.020Z,3.38
2024-04-14T13:11:39.636Z,3.38
2024-04-14T13:14:07.007Z,3.22
2024-04-14T13:16:34.835Z,3.13
2024-04-14T13:19:03.045Z,3.20
2024-04-14T13:21:33.496Z,2.28
2024-04-14T13:24:00.973Z,4.78
2024-04-14T13:26:29.033Z,2.90
2024-04-14T13:28:56.668Z,3.60
2024-04-14T13:31:24.215Z,2.45
2024-04-14T13:33:52.348Z,2.97
2024-04-14T13:36:19.996Z,2.55
2024-04-14T13:38:47.498Z,3.13
2024-04-14T13:41:14.535Z,3.22
2024-04-14T13:43:41.950Z,3.40
2024-04-14T13:46:09.588Z,5.18
2024-04-14T13:48:36.167Z,3.35
2024-04-14T13:51:06.086Z,3.10
2024-04-14T13:53:36.372Z,4.55
2024-04-14T13:56:04.055Z,4.25
2024-04-14T13:58:31.566Z,2.08
2024-04-14T14:00:59.247Z,4.28
2024-04-14T14:03:25.668Z,5.15
2024-04-14T14:05:53.323Z,5.93
2024-04-14T14:08:21.232Z,4.22
2024-04-14T14:10:48.929Z,6.07
2024-04-14T14:13:15.436Z,2.85
2024-04-14T14:15:50.614Z,3.47
2024-04-14T14:18:17.133Z,2.60
2024-04-14T14:20:44.567Z,3.63
2024-04-14T14:23:10.904Z,3.40
2024-04-14T14:25:38.660Z,3.70
2024-04-14T14:28:06.046Z,2.75
2024-04-14T14:30:36.500Z,3.70
2024-04-14T14:33:24.843Z,3.00
2024-04-14T14:36:11.859Z,4.25
2024-04-14T14:38:39.906Z,3.13
2024-04-14T14:41:09.408Z,2.50
2024-04-14T14:43:36.952Z,2.85
2024-04-14T14:46:05.320Z,4.57
2024-04-14T14:48:31.987Z,5.80
2024-04-14T14:50:59.914Z,4.50
2024-04-14T14:53:27.895Z,3.67
2024-04-14T14:55:55.901Z,4.97
2024-04-14T14:58:23.946Z,4.47
2024-04-14T15:00:54.577Z,5.45
2024-04-14T15:03:22.897Z,3.83
2024-04-14T15:05:51.328Z,2.90
2024-04-14T15:08:19.446Z,4.50
2024-04-14T15:10:48.259Z,5.18
2024-04-14T15:13:16.236Z,2.95
2024-04-14T15:16:04.905Z,4.00
2024-04-14T15:18:33.383Z,4.70
2024-04-14T15:21:00.314Z,3.88
2024-04-14T15:23:28.995Z,6.40
2024-04-14T15:25:58.419Z,3.95
2024-04-14T15:28:30.459Z,3.13
2024-04-14T15:31:00.188Z,3.60
2024-04-14T15:33:27.978Z,3.55
2024-04-14T15:35:55.912Z,2.88
2024-04-14T15:38:30.076Z,2.92
2024-04-14T15:40:59.278Z,3.28
2024-04-14T15:43:27.020Z,3.92
2024-04-14T15:45:55.345Z,4.68
2024-04-14T15:48:23.760Z,2.80
2024-04-14T15:53:30.617Z,3.58
2024-04-14T15:56:01.571Z,3.28
2024-04-14T15:58:29.102Z,3.05
2024-04-14T16:01:01.577Z,4.50
2024-04-14T16:03:29.529Z,5.93
2024-04-14T16:05:57.539Z,5.30
2024-04-14T16:08:28.624Z,4.05
2024-04-14T16:11:06.619Z,4.20
2024-04-14T16:13:37.582Z,8.30
2024-04-14T16:16:06.801Z,4.88
2024-04-14T16:18:34.770Z,4.22
2024-04-14T16:21:04.557Z,5.30
2024-04-14T16:23:39.679Z,4.32
2024-04-14T16:26:09.646Z,4.13
2024-04-14T16:28:38.257Z,3.75
2024-04-14T16:31:09.335Z,5.95
2024-04-14T16:33:39.900Z,3.50
2024-04-14T16:36:07.856Z,6.47
2024-04-14T16:38:37.228Z,5.10
2024-04-14T16:41:11.604Z,3.95
2024-04-14T16:43:40.073Z,5.97
2024-04-14T16:46:08.159Z,6.25
2024-04-14T16:48:39.424Z,4.78
2024-04-14T16:51:14.279Z,4.20
2024-04-14T16:53:41.590Z,4.35
2024-04-14T16:56:08.347Z,6.50
2024-04-14T16:58:36.199Z,4.32
2024-04-14T17:01:04.599Z,5.88
2024-04-14T17:03:32.674Z,4.93
2024-04-14T17:06:00.551Z,5.70
2024-04-14T17:08:28.494Z,4.40
2024-04-14T17:10:56.897Z,7.40
2024-04-14T17:13:26.790Z,6.25
2024-04-14T17:15:54.555Z,5.72
2024-04-14T17:18:21.180Z,4.65
2024-04-14T17:20:49.105Z,6.60
2024-04-14T17:23:16.295Z,7.57
2024-04-14T17:25:43.894Z,7.93
2024-04-14T17:30:51.736Z,5.00
2024-04-14T17:33:22.566Z,5.57
2024-04-14T17:35:50.703Z,6.32
2024-04-14T17:38:18.769Z,7.18
2024-04-14T17:40:46.950Z,5.38
2024-04-14T17:43:15.839Z,9.15
2024-04-14T17:45:45.166Z,4.88
2024-04-14T17:48:12.712Z,6.15
2024-04-14T17:50:40.773Z,5.85
2024-04-14T17:53:08.587Z,9.15
2024-04-14T17:55:36.387Z,6.47
2024-04-14T17:58:03.053Z,5.57
2024-04-14T18:00:30.289Z,5.78
2024-04-14T18:02:58.621Z,6.60
2024-04-14T18:05:26.890Z,6.07
2024-04-14T18:07:54.589Z,5.55
2024-04-14T18:10:24.497Z,5.95
2024-04-14T18:12:52.526Z,6.88
2024-04-14T18:15:20.759Z,5.15
2024-04-14T18:17:48.819Z,5.28
2024-04-14T18:20:16.983Z,6.00
2024-04-14T18:22:44.998Z,6.95
2024-04-14T18:25:13.508Z,5.45
2024-04-14T18:27:41.068Z,5.72
2024-04-14T18:30:08.876Z,4.40
2024-04-14T18:32:38.016Z,4.53
2024-04-14T18:35:06.565Z,5.72
2024-04-14T18:37:44.013Z,5.47
2024-04-14T18:40:12.038Z,6.07
2024-04-14T18:42:40.237Z,5.68
2024-04-14T18:45:07.953Z,5.38
2024-04-14T18:47:36.174Z,3.83
2024-04-14T18:50:04.351Z,4.32
2024-04-14T18:52:32.471Z,7.45
2024-04-14T18:55:00.291Z,4.25
2024-04-14T18:57:27.784Z,5.88
2024-04-14T18:59:55.585Z,6.00
2024-04-14T19:02:23.062Z,8.27
2024-04-14T19:04:51.247Z,6.15
2024-04-14T19:07:18.883Z,5.97
2024-04-14T19:09:46.656Z,5.78
2024-04-14T19:12:14.265Z,4.50
2024-04-14T19:14:42.196Z,4.40
2024-04-14T19:17:12.915Z,7.53
2024-04-14T19:19:40.648Z,5.68
2024-04-14T19:22:09.403Z,5.38
2024-04-14T19:24:37.061Z,7.82
2024-04-14T19:27:05.855Z,6.47
2024-04-14T19:29:33.559Z,4.75
2024-04-14T19:31:59.984Z,5.85
2024-04-14T19:34:28.428Z,7.30
2024-04-14T19:36:58.104Z,7.63
2024-04-14T19:39:25.757Z,4.55
2024-04-14T19:41:53.244Z,4.95
2024-04-14T19:44:20.891Z,4.53
2024-04-14T19:46:48.993Z,4.78
2024-04-14T19:49:16.790Z,4.88
2024-04-14T19:51:44.842Z,5.25
2024-04-14T19:54:15.665Z,4.72
2024-04-14T19:56:42.193Z,4.40
2024-04-14T19:59:10.221Z,4.95
2024-04-14T20:01:37.789Z,3.97
2024-04-14T20:04:05.908Z,4.47
2024-04-14T20:06:33.517Z,7.85
2024-04-14T20:09:01.162Z,5.88
2024-04-14T20:11:28.834Z,5.53
2024-04-14T20:13:56.251Z,5.38
2024-04-14T20:18:51.646Z,4.40
2024-04-14T20:21:19.035Z,5.90
2024-04-14T20:26:14.502Z,5.32
2024-04-14T20:28:41.881Z,5.03
2024-04-14T20:33:37.074Z,4.60
2024-04-14T20:36:07.660Z,5.30
2024-04-14T20:38:34.208Z,5.82
2024-04-14T20:41:01.900Z,7.65
2024-04-14T20:43:28.998Z,4.95
2024-04-14T20:45:57.166Z,4.63
2024-04-14T20:48:23.853Z,5.05
2024-04-14T20:50:51.957Z,6.88
2024-04-14T20:53:20.143Z,6.20
2024-04-14T20:55:47.731Z,4.55
2024-04-14T20:58:14.304Z,5.82
2024-04-14T21:00:42.121Z,4.38
2024-04-14T21:03:08.571Z,4.53
2024-04-14T21:05:36.235Z,7.35
2024-04-14T21:08:04.177Z,6.15
2024-04-14T21:10:31.909Z,5.60
2024-04-14T21:12:59.420Z,5.00
2024-04-14T21:15:30.986Z,6.97
2024-04-14T21:17:58.969Z,5.78
2024-04-14T21:20:26.762Z,7.30
2024-04-14T21:22:54.313Z,5.72
2024-04-14T21:25:21.996Z,7.22
2024-04-14T21:27:50.290Z,6.85
2024-04-14T21:30:18.508Z,5.03
2024-04-14T21:32:46.561Z,6.00
2024-04-14T21:35:17.942Z,7.60
2024-04-14T21:37:46.943Z,6.97
2024-04-14T21:40:14.590Z,6.85
2024-04-14T21:42:42.163Z,5.72
2024-04-14T21:45:10.024Z,4.47
2024-04-14T21:47:36.846Z,7.50
2024-04-14T21:50:04.957Z,4.75
2024-04-14T21:52:32.441Z,8.15
2024-04-14T21:55:00.408Z,4.90
2024-04-14T21:57:27.951Z,5.10
2024-04-14T21:59:55.537Z,5.80
2024-04-14T22:02:23.262Z,4.68
2024-04-14T22:04:51.307Z,5.18
2024-04-14T22:07:20.294Z,5.80
2024-04-14T22:09:47.947Z,5.80
2024-04-14T22:12:15.489Z,4.40
2024-04-14T22:14:43.099Z,5.28
2024-04-14T22:17:12.715Z,6.68
2024-04-14T22:19:40.440Z,5.43
2024-04-14T22:22:08.321Z,4.35
2024-04-14T22:24:36.414Z,6.80
2024-04-14T22:27:04.388Z,4.85
2024-04-14T22:29:32.057Z,5.55
2024-04-14T22:31:59.755Z,5.20
2024-04-14T22:34:27.428Z,6.25
2024-04-14T22:36:55.483Z,7.13
2024-04-14T22:39:23.257Z,5.50
2024-04-14T22:41:50.733Z,5.45
2024-04-14T22:46:45.711Z,4.43
2024-04-14T22:49:13.661Z,6.95
2024-04-14T22:51:41.502Z,5.30
2024-04-14T22:54:09.091Z,6.85
2024-04-14T22:56:36.649Z,5.07
2024-04-14T22:59:04.240Z,5.97
2024-04-14T23:01:31.829Z,4.65
2024-04-14T23:03:59.588Z,4.13
2024-04-14T23:06:27.174Z,6.18
2024-04-14T23:08:55.077Z,5.00
2024-04-14T23:11:22.542Z,6.82
2024-04-14T23:16:18.024Z,5.15
2024-04-14T23:18:45.681Z,5.65
2024-04-14T23:21:13.098Z,6.18
2024-04-14T23:26:08.006Z,5.63
2024-04-14T23:31:02.132Z,5.82
2024-04-14T23:33:28.599Z,5.80
2024-04-14T23:35:55.750Z,5.53
2024-04-14T23:38:22.142Z,5.40
2024-04-14T23:40:49.933Z,6.63
2024-04-14T23:43:17.970Z,4.53
2024-04-14T23:45:46.711Z,6.70
2024-04-14T23:48:13.156Z,6.45
2024-04-14T23:50:41.132Z,6.53
2024-04-14T23:53:07.572Z,7.60
2024-04-14T23:55:35.178Z,5.50
2024-04-14T23:58:02.915Z,5.57
